Time;durP1;ratioP1;P1;durP2;ratioP2;P2;SDS_P1;SDS_P2;PMS_P1;PMS_P2;Temp;Humidity;BMP_temperature;BMP_pressure;BME280_temperature;BME280_humidity;BME280_pressure;Samples;Min_cycle;Max_cycle;Signal;HPM_P1;HPM_P2
2022/02/01 00:00:01;;;;;;;8.97;8.37;;;16.60;55.90;;;;;;4993472;28;20445;-47
2022/02/01 00:02:37;;;;;;;7.90;7.60;;;16.60;56.30;;;;;;5007996;28;20452;-46
2022/02/01 00:05:10;;;;;;;8.60;8.07;;;16.50;56.50;;;;;;5032666;28;20440;-46
2022/02/01 00:07:45;;;;;;;8.30;7.80;;;16.50;56.60;;;;;;5032539;28;20800;-48
2022/02/01 00:10:18;;;;;;;8.17;7.87;;;16.60;56.60;;;;;;5032379;28;20854;-47
2022/02/01 00:12:54;;;;;;;7.87;7.57;;;16.50;56.60;;;;;;5023023;28;20454;-46
2022/02/01 00:18:29;;;;;;;8.57;8.17;;;16.40;56.70;;;;;;4974579;28;20791;-48
2022/02/01 00:35:00;;;;;;;7.63;7.20;;;16.30;57.20;;;;;;5012584;28;20418;-45
2022/02/01 00:37:30;;;;;;;9.10;8.53;;;16.30;57.30;;;;;;5012320;28;20541;-46
2022/02/01 00:39:59;;;;;;;8.60;8.30;;;16.20;57.40;;;;;;5012528;28;20536;-46
2022/02/01 00:42:26;;;;;;;8.50;8.00;;;16.20;57.40;;;;;;5018022;28;20452;-46
2022/02/01 00:44:53;;;;;;;8.80;8.30;;;16.10;57.40;;;;;;5031923;28;20448;-46
2022/02/01 00:47:20;;;;;;;8.80;8.23;;;16.10;57.60;;;;;;5031414;28;20449;-47
2022/02/01 00:49:49;;;;;;;8.80;8.50;;;16.10;57.80;;;;;;5031882;28;20496;-48
2022/02/01 00:52:15;;;;;;;8.90;8.53;;;16.10;58.30;;;;;;5027380;28;20473;-46
2022/02/01 00:54:42;;;;;;;9.57;9.07;;;16.00;57.80;;;;;;5012066;28;20450;-47
2022/02/01 00:57:12;;;;;;;8.87;8.37;;;16.00;57.90;;;;;;5011894;28;20446;-46
2022/02/01 00:59:38;;;;;;;8.30;8.00;;;16.00;58.10;;;;;;5011995;28;20461;-45
2022/02/01 01:02:05;;;;;;;9.10;8.50;;;15.90;58.20;;;;;;5014495;28;20446;-48
2022/02/01 01:04:32;;;;;;;8.30;7.90;;;15.90;58.30;;;;;;5031317;28;20449;-49
2022/02/01 01:07:00;;;;;;;7.93;7.77;;;15.90;58.40;;;;;;5031476;28;20445;-49
2022/02/01 01:09:27;;;;;;;8.63;7.90;;;15.80;58.70;;;;;;5031361;28;20484;-45
2022/02/01 01:11:57;;;;;;;8.40;8.20;;;15.80;58.70;;;;;;5030502;28;20460;-46
2022/02/01 01:14:48;;;;;;;8.03;7.73;;;15.80;58.80;;;;;;5011914;28;20442;-46
2022/02/01 01:17:47;;;;;;;8.67;8.40;;;15.70;58.80;;;;;;5011851;28;20450;-47
2022/02/01 01:45:16;;;;;;;8.40;8.00;;;15.50;60.10;;;;;;5011687;28;20409;-47
2022/02/01 01:53:21;;;;;;;8.87;8.20;;;15.40;60.20;;;;;;5031265;28;20448;-49
2022/02/01 01:55:52;;;;;;;8.10;7.70;;;15.40;60.60;;;;;;5031047;28;20540;-45
2022/02/01 01:58:21;;;;;;;8.40;7.70;;;15.40;60.50;;;;;;5031276;28;20969;-49
2022/02/01 02:01:11;;;;;;;7.60;7.30;;;15.50;60.50;;;;;;5025585;28;20474;-46
2022/02/01 02:03:39;;;;;;;7.80;7.50;;;15.40;60.10;;;;;;5011492;28;20446;-46
2022/02/01 02:06:06;;;;;;;8.03;7.73;;;15.30;60.50;;;;;;5011356;28;20491;-48
2022/02/01 02:08:33;;;;;;;7.93;7.60;;;15.30;60.80;;;;;;5011386;28;20516;-45
2022/02/01 02:11:04;;;;;;;7.57;7.37;;;15.40;61.00;;;;;;5012211;28;20493;-49
2022/02/01 02:16:20;;;;;;;8.37;8.07;;;15.40;60.90;;;;;;5011409;28;20425;-49
2022/02/01 02:18:47;;;;;;;7.87;7.67;;;15.30;61.00;;;;;;5015053;28;20445;-46
2022/02/01 02:21:17;;;;;;;8.17;7.87;;;15.40;61.30;;;;;;5032205;28;20476;-49
2022/02/01 02:23:44;;;;;;;7.93;7.63;;;15.40;61.40;;;;;;5034497;28;20981;-47
2022/02/01 02:26:13;;;;;;;8.20;7.47;;;15.30;61.70;;;;;;5034242;28;20808;-46
2022/02/01 02:28:40;;;;;;;7.10;6.90;;;15.30;61.70;;;;;;5034443;28;20931;-45
2022/02/01 02:31:07;;;;;;;7.57;7.30;;;15.30;61.70;;;;;;5017874;28;20572;-46
2022/02/01 02:33:34;;;;;;;8.47;8.20;;;15.30;61.80;;;;;;5014613;28;20450;-46
2022/02/01 02:36:05;;;;;;;7.77;7.57;;;15.30;62.20;;;;;;5014380;28;20548;-46
2022/02/01 02:38:39;;;;;;;7.47;7.27;;;15.20;62.50;;;;;;5014586;28;20481;-45
2022/02/01 02:46:34;;;;;;;8.20;7.90;;;15.20;63.00;;;;;;5034169;28;20416;-46
2022/02/01 02:49:04;;;;;;;8.53;8.13;;;15.20;63.20;;;;;;5034152;28;20441;-49
2022/02/01 02:51:30;;;;;;;9.20;8.30;;;15.20;63.30;;;;;;5014455;28;20478;-45
2022/02/01 02:53:58;;;;;;;8.10;7.80;;;15.20;63.20;;;;;;5014184;28;20446;-48
2022/02/01 02:56:25;;;;;;;8.37;8.07;;;15.20;63.20;;;;;;5014038;28;20457;-50
2022/02/01 02:58:52;;;;;;;7.73;7.53;;;15.20;63.30;;;;;;5014237;28;20822;-46
2022/02/01 03:01:19;;;;;;;8.07;7.80;;;15.20;63.40;;;;;;5031265;28;20512;-46
2022/02/01 03:03:46;;;;;;;7.40;7.20;;;15.20;63.60;;;;;;5033988;28;20456;-46
2022/02/01 03:06:12;;;;;;;7.73;7.30;;;15.20;63.60;;;;;;5033514;28;20449;-44
2022/02/01 03:08:39;;;;;;;8.03;7.63;;;15.20;63.70;;;;;;5033760;28;20447;-46
2022/02/01 03:11:12;;;;;;;7.30;7.10;;;15.20;63.70;;;;;;5015410;28;20486;-47
2022/02/01 03:13:40;;;;;;;8.20;7.90;;;15.20;63.70;;;;;;5013913;28;20457;-47
2022/02/01 03:16:12;;;;;;;7.70;7.30;;;15.20;64.00;;;;;;5013711;28;20456;-48
2022/02/01 03:21:23;;;;;;;7.93;7.50;;;15.10;65.10;;;;;;5033310;28;20457;-45
2022/02/01 03:23:50;;;;;;;7.03;6.83;;;15.10;65.20;;;;;;5033459;28;20715;-48
2022/02/01 03:26:18;;;;;;;6.90;6.63;;;15.20;65.30;;;;;;5033258;28;20441;-45
2022/02/01 03:28:45;;;;;;;6.70;6.60;;;15.10;65.20;;;;;;5032121;28;20445;-48
2022/02/01 03:31:12;;;;;;;7.20;7.00;;;15.10;65.60;;;;;;5013513;28;21010;-46
2022/02/01 03:33:38;;;;;;;7.20;6.90;;;15.10;65.80;;;;;;5013616;28;20450;-45
2022/02/01 03:36:05;;;;;;;7.40;7.20;;;15.10;65.70;;;;;;5013227;28;20446;-47
2022/02/01 03:38:32;;;;;;;7.57;7.30;;;15.10;66.00;;;;;;5013445;28;20446;-50
2022/02/01 03:40:59;;;;;;;7.30;7.00;;;15.10;66.30;;;;;;5031781;28;20465;-49
2022/02/01 03:43:27;;;;;;;8.07;7.63;;;15.00;66.40;;;;;;5033084;28;20449;-45
2022/02/01 03:45:54;;;;;;;7.10;6.90;;;15.00;66.60;;;;;;5032557;28;20830;-46
2022/02/01 03:48:21;;;;;;;6.80;6.50;;;15.00;67.50;;;;;;5032879;28;20464;-46
2022/02/01 03:50:48;;;;;;;8.53;8.00;;;15.00;66.90;;;;;;5015639;28;20489;-49
2022/02/01 03:53:15;;;;;;;7.33;7.10;;;15.10;67.00;;;;;;5013317;28;20458;-45
2022/02/01 03:55:42;;;;;;;7.20;7.00;;;15.00;67.30;;;;;;5012902;28;20442;-47
2022/02/01 03:58:09;;;;;;;7.57;7.27;;;15.10;67.10;;;;;;5013098;28;20931;-45
2022/02/01 04:00:37;;;;;;;7.03;6.73;;;15.00;67.20;;;;;;5027362;28;20839;-46
2022/02/01 04:03:04;;;;;;;7.60;7.30;;;15.00;67.30;;;;;;5032631;28;20445;-46
2022/02/01 04:05:32;;;;;;;7.03;6.90;;;15.10;67.20;;;;;;5032397;28;20445;-48
2022/02/01 04:07:59;;;;;;;8.33;7.93;;;15.00;67.30;;;;;;5032595;28;20822;-45
2022/02/01 04:10:26;;;;;;;7.50;7.00;;;15.00;67.50;;;;;;5018689;28;20488;-46
2022/02/01 04:12:53;;;;;;;7.27;6.97;;;15.00;67.60;;;;;;5012855;28;20442;-46
2022/02/01 04:15:23;;;;;;;7.27;7.07;;;14.90;68.00;;;;;;5012666;28;20845;-45
2022/02/01 04:17:52;;;;;;;7.60;7.40;;;15.00;68.10;;;;;;5012659;28;20446;-47
2022/02/01 04:20:19;;;;;;;7.97;7.77;;;14.90;68.40;;;;;;5024566;28;20469;-46
2022/02/01 04:22:46;;;;;;;7.07;6.90;;;15.00;68.90;;;;;;5032298;28;21024;-47
2022/02/01 04:25:13;;;;;;;8.43;8.03;;;14.90;69.00;;;;;;5032203;28;20453;-46
2022/02/01 04:27:42;;;;;;;7.73;7.50;;;15.00;69.20;;;;;;5032333;28;20451;-46
2022/02/01 04:30:12;;;;;;;8.07;7.87;;;14.90;69.70;;;;;;5021447;28;20474;-46
2022/02/01 04:32:41;;;;;;;7.23;7.03;;;14.90;69.90;;;;;;5012653;28;20931;-46
2022/02/01 04:35:10;;;;;;;7.27;6.97;;;14.90;70.20;;;;;;5012412;28;20446;-49
2022/02/01 04:37:38;;;;;;;6.70;6.60;;;14.80;70.70;;;;;;5012343;28;20445;-46
2022/02/01 04:40:07;;;;;;;7.33;7.13;;;14.90;70.80;;;;;;5020686;28;20478;-51
2022/02/01 04:42:36;;;;;;;7.50;7.27;;;14.90;70.90;;;;;;5031661;28;20977;-45
2022/02/01 04:45:03;;;;;;;7.50;7.10;;;14.90;71.80;;;;;;5031931;28;20539;-46
2022/02/01 04:47:32;;;;;;;7.17;6.73;;;14.90;71.90;;;;;;5031771;28;20456;-46
2022/02/01 04:49:59;;;;;;;7.87;7.47;;;14.90;72.40;;;;;;5022942;28;20998;-44
2022/02/01 04:52:29;;;;;;;7.43;7.23;;;14.90;72.90;;;;;;5012237;28;20446;-49
2022/02/01 04:54:57;;;;;;;7.70;7.40;;;14.90;73.40;;;;;;5012202;28;20449;-48
2022/02/01 04:57:23;;;;;;;7.60;7.40;;;14.90;73.70;;;;;;5011900;28;20446;-45
2022/02/01 04:59:51;;;;;;;8.50;8.03;;;14.80;73.30;;;;;;5019046;28;20560;-48
2022/02/01 05:02:18;;;;;;;7.00;6.90;;;14.90;74.50;;;;;;5031834;28;20801;-46
2022/02/01 05:04:45;;;;;;;7.90;7.60;;;14.90;74.30;;;;;;5031611;28;20445;-48
2022/02/01 05:07:12;;;;;;;7.93;7.73;;;15.00;74.30;;;;;;5030043;28;20463;-45
2022/02/01 05:12:10;;;;;;;8.60;8.30;;;15.00;74.30;;;;;;5030082;28;20481;-44
2022/02/01 05:14:36;;;;;;;8.20;7.90;;;15.00;74.10;;;;;;5031710;28;20456;-43
2022/02/01 05:17:04;;;;;;;7.90;7.70;;;15.00;74.10;;;;;;5031286;28;20453;-43
2022/02/01 05:19:45;;;;;;;8.30;8.00;;;15.00;74.10;;;;;;5014918;28;20444;-44
2022/02/01 05:22:15;;;;;;;9.23;8.97;;;15.00;74.20;;;;;;5019606;28;20533;-43
2022/02/01 05:24:43;;;;;;;8.43;8.23;;;14.90;75.10;;;;;;5019550;28;20532;-55
2022/02/01 05:27:13;;;;;;;8.10;7.80;;;14.90;76.30;;;;;;5018871;28;20560;-43
2022/02/01 05:29:41;;;;;;;8.00;7.70;;;15.10;77.80;;;;;;4999718;28;20815;-48
2022/02/01 05:32:22;;;;;;;8.10;7.90;;;16.10;76.90;;;;;;4999651;28;21349;-45
2022/02/01 05:34:49;;;;;;;8.60;8.40;;;17.20;71.20;;;;;;4999750;28;20461;-43
2022/02/01 05:37:16;;;;;;;9.57;9.27;;;17.90;66.20;;;;;;5000368;28;20461;-44
2022/02/01 05:39:43;;;;;;;8.40;8.20;;;18.40;63.00;;;;;;5019316;28;20453;-43
2022/02/01 05:42:15;;;;;;;8.83;8.43;;;19.00;60.30;;;;;;5019294;28;20444;-42
2022/02/01 05:44:41;;;;;;;9.77;9.30;;;19.30;58.50;;;;;;5019789;28;20847;-43
2022/02/01 05:47:08;;;;;;;9.73;9.27;;;19.50;58.50;;;;;;5019046;28;20973;-46
2022/02/01 05:49:36;;;;;;;9.57;8.97;;;19.70;57.60;;;;;;5018999;28;20460;-43
2022/02/01 05:52:04;;;;;;;10.47;9.73;;;19.90;58.00;;;;;;5021992;28;20489;-44
2022/02/01 05:54:31;;;;;;;10.93;10.07;;;19.90;59.60;;;;;;5023374;28;20456;-44
2022/02/01 05:56:58;;;;;;;10.30;9.60;;;19.90;57.60;;;;;;5022887;28;20783;-44
2022/02/01 05:59:27;;;;;;;10.57;9.60;;;20.00;58.80;;;;;;5008544;28;20540;-44
2022/02/01 06:01:54;;;;;;;11.20;10.40;;;20.00;59.00;;;;;;5003543;28;21088;-44
2022/02/01 06:04:21;;;;;;;12.33;11.33;;;20.10;59.10;;;;;;5009021;28;20449;-46
2022/02/01 06:06:48;;;;;;;10.20;9.60;;;20.00;58.90;;;;;;5022970;28;21244;-46
2022/02/01 06:09:15;;;;;;;10.43;9.93;;;20.00;60.00;;;;;;5022839;28;20459;-45
2022/02/01 06:11:42;;;;;;;11.37;10.57;;;19.90;60.40;;;;;;5022680;28;20496;-47
2022/02/01 06:14:09;;;;;;;11.43;10.47;;;20.00;60.50;;;;;;5021884;28;20449;-46
2022/02/01 06:16:37;;;;;;;11.40;10.50;;;19.90;60.30;;;;;;5021861;28;20927;-46
2022/02/01 06:19:03;;;;;;;11.07;10.37;;;19.80;60.50;;;;;;5022870;28;20445;-45
2022/02/01 06:21:30;;;;;;;10.40;9.90;;;19.80;60.50;;;;;;5022562;28;20464;-46
2022/02/01 06:23:57;;;;;;;10.73;10.03;;;19.80;60.20;;;;;;5015467;28;20900;-45
2022/02/01 06:26:24;;;;;;;11.40;10.80;;;19.80;59.80;;;;;;5002563;28;20906;-44
2022/02/01 06:28:50;;;;;;;11.63;10.53;;;19.70;60.20;;;;;;5003324;28;20446;-45
2022/02/01 06:31:17;;;;;;;10.80;10.30;;;19.70;60.30;;;;;;5002672;28;20493;-44
2022/02/01 06:33:45;;;;;;;11.33;10.73;;;19.70;60.50;;;;;;5002793;28;20798;-45
2022/02/01 06:36:12;;;;;;;11.37;10.70;;;19.70;60.60;;;;;;5002587;28;21283;-45
2022/02/01 06:38:39;;;;;;;10.80;10.10;;;19.60;60.60;;;;;;5003096;28;20461;-45
2022/02/01 06:41:06;;;;;;;11.57;11.03;;;19.60;60.90;;;;;;5002676;28;20846;-44
2022/02/01 06:43:32;;;;;;;11.07;10.37;;;19.50;60.00;;;;;;5004641;28;21031;-46
2022/02/01 06:45:59;;;;;;;9.70;9.20;;;19.50;60.30;;;;;;5001134;28;20443;-48
2022/02/01 06:48:26;;;;;;;11.23;10.67;;;19.40;59.80;;;;;;5002426;28;20218;-45
2022/02/01 06:50:54;;;;;;;10.03;9.53;;;19.40;59.50;;;;;;5002128;28;20841;-44
2022/02/01 06:53:22;;;;;;;10.10;9.77;;;19.50;59.30;;;;;;5002603;28;21043;-44
2022/02/01 06:55:58;;;;;;;8.70;8.10;;;19.30;59.20;;;;;;5022076;28;20464;-45
2022/02/01 06:58:25;;;;;;;10.03;9.07;;;19.30;59.40;;;;;;5021919;28;20449;-45
2022/02/01 07:00:52;;;;;;;7.50;7.00;;;19.20;59.30;;;;;;5021694;28;21050;-44
2022/02/01 07:03:18;;;;;;;9.47;8.97;;;19.20;59.50;;;;;;5020831;28;20896;-47
2022/02/01 07:05:45;;;;;;;9.80;9.30;;;19.10;59.60;;;;;;5002236;28;20450;-47
2022/02/01 07:08:13;;;;;;;9.87;9.30;;;19.10;59.80;;;;;;5002272;28;20454;-45
2022/02/01 07:10:40;;;;;;;10.43;10.03;;;19.00;59.70;;;;;;5002225;28;21084;-44
2022/02/01 07:13:08;;;;;;;10.30;9.63;;;19.00;60.00;;;;;;5009916;28;20956;-44
2022/02/01 07:15:35;;;;;;;10.00;9.53;;;18.90;59.60;;;;;;5021738;28;20950;-44
2022/02/01 07:18:02;;;;;;;8.20;7.80;;;18.90;60.10;;;;;;5021552;28;20452;-43
2022/02/01 07:20:28;;;;;;;9.60;9.20;;;18.90;60.10;;;;;;5015466;28;21011;-45
2022/02/01 07:22:55;;;;;;;10.17;9.77;;;18.80;60.30;;;;;;5003616;28;20457;-45
2022/02/01 07:25:28;;;;;;;9.00;8.60;;;18.80;60.50;;;;;;5001367;28;20959;-45
2022/02/01 07:27:56;;;;;;;10.33;9.73;;;18.80;60.50;;;;;;5001781;28;20457;-44
2022/02/01 07:30:24;;;;;;;9.63;9.20;;;18.70;60.30;;;;;;5002011;28;20466;-43
2022/02/01 07:32:53;;;;;;;8.60;8.10;;;18.70;60.10;;;;;;5020237;28;20548;-44
2022/02/01 07:35:21;;;;;;;9.47;9.07;;;18.70;60.30;;;;;;5021698;28;20210;-43
2022/02/01 07:37:48;;;;;;;10.23;9.80;;;18.70;59.90;;;;;;5021636;28;20449;-51
2022/02/01 07:40:15;;;;;;;10.57;10.07;;;18.60;60.10;;;;;;5020965;28;20469;-43
2022/02/01 07:42:43;;;;;;;10.57;10.13;;;18.60;60.10;;;;;;5021081;28;20460;-44
2022/02/01 07:45:12;;;;;;;9.80;9.40;;;18.60;60.20;;;;;;5021300;28;21155;-45
2022/02/01 07:47:39;;;;;;;9.40;9.00;;;18.50;60.50;;;;;;5021417;28;20598;-45
2022/02/01 07:50:08;;;;;;;10.70;10.10;;;18.40;60.60;;;;;;5009068;28;20477;-42
2022/02/01 07:52:35;;;;;;;12.20;11.70;;;18.30;60.80;;;;;;5001242;28;20485;-44
2022/02/01 07:55:01;;;;;;;29.83;17.80;;;18.30;60.90;;;;;;5001459;28;20446;-44
2022/02/01 07:57:29;;;;;;;209.10;88.47;;;18.30;61.50;;;;;;5002446;28;20454;-46
2022/02/01 07:59:57;;;;;;;237.37;101.40;;;18.30;61.80;;;;;;5001096;28;20454;-44
2022/02/01 08:02:25;;;;;;;411.83;155.87;;;18.50;62.50;;;;;;5001407;28;20895;-45
2022/02/01 08:04:53;;;;;;;430.87;179.80;;;19.10;63.40;;;;;;5001040;28;20458;-43
2022/02/01 08:07:21;;;;;;;474.50;195.73;;;19.60;62.00;;;;;;5007944;28;20640;-47
2022/02/01 08:09:52;;;;;;;522.67;217.57;;;19.90;61.60;;;;;;5001175;28;20454;-44
2022/02/01 08:12:45;;;;;;;510.90;209.00;;;20.30;61.00;;;;;;5000888;28;20596;-43
2022/02/01 08:18:07;;;;;;;423.33;182.57;;;21.20;58.40;;;;;;4991992;28;20437;-43
2022/02/01 08:20:36;;;;;;;407.73;182.23;;;21.30;57.10;;;;;;5001362;28;21077;-43
2022/02/01 08:23:03;;;;;;;446.37;187.97;;;21.50;56.70;;;;;;5000846;28;20443;-44
2022/02/01 08:25:32;;;;;;;427.27;180.53;;;21.50;56.30;;;;;;5000502;28;21112;-46
2022/02/01 08:28:00;;;;;;;384.50;160.33;;;21.60;55.80;;;;;;5000757;28;20445;-44
2022/02/01 08:30:29;;;;;;;358.33;151.67;;;21.70;55.00;;;;;;5007075;28;20477;-44
2022/02/01 08:32:57;;;;;;;358.13;147.07;;;21.70;54.40;;;;;;5000473;28;20485;-46
2022/02/01 08:35:24;;;;;;;334.92;144.50;;;21.80;54.00;;;;;;4999908;28;20597;-48
2022/02/01 08:37:51;;;;;;;328.70;145.87;;;22.00;53.50;;;;;;5018029;28;20763;-47
2022/02/01 08:40:19;;;;;;;296.83;146.70;;;22.30;53.50;;;;;;5020239;28;20753;-45
2022/02/01 08:42:46;;;;;;;299.63;135.97;;;22.50;52.70;;;;;;5020095;28;20449;-45
2022/02/01 08:45:20;;;;;;;344.57;150.60;;;22.60;52.30;;;;;;5019966;28;20449;-46
2022/02/01 08:47:49;;;;;;;269.93;126.53;;;22.60;52.20;;;;;;5019585;28;20558;-45
2022/02/01 08:50:19;;;;;;;268.97;124.40;;;22.60;51.50;;;;;;5000350;28;20474;-46
2022/02/01 08:52:48;;;;;;;281.37;126.87;;;22.60;52.10;;;;;;5000310;28;20521;-47
2022/02/01 08:55:33;;;;;;;280.90;127.70;;;22.50;51.20;;;;;;4999941;28;20457;-46
2022/02/01 08:58:00;;;;;;;290.52;138.85;;;22.60;51.50;;;;;;4998844;28;20895;-44
2022/02/01 09:00:28;;;;;;;210.60;108.73;;;22.60;51.30;;;;;;5004978;28;20226;-45
2022/02/01 09:02:57;;;;;;;256.37;123.50;;;22.80;51.30;;;;;;5019763;28;20783;-45
2022/02/01 09:05:25;;;;;;;239.47;107.50;;;23.10;50.90;;;;;;5019656;28;20913;-47
2022/02/01 09:07:52;;;;;;;256.47;117.07;;;23.20;50.40;;;;;;5019538;28;20920;-45
2022/02/01 09:10:18;;;;;;;219.40;104.67;;;23.10;50.20;;;;;;5017826;28;20502;-45
2022/02/01 09:12:46;;;;;;;190.43;98.27;;;23.10;49.80;;;;;;5019509;28;20489;-44
2022/02/01 09:15:13;;;;;;;229.30;109.30;;;23.10;49.70;;;;;;5019473;28;20455;-44
2022/02/01 09:17:40;;;;;;;197.30;98.40;;;23.00;50.00;;;;;;5019501;28;20481;-45
2022/02/01 09:20:09;;;;;;;180.40;93.60;;;23.10;50.00;;;;;;5019226;28;20496;-46
2022/02/01 09:22:36;;;;;;;187.70;90.57;;;23.10;50.10;;;;;;5019627;28;20448;-47
2022/02/01 09:25:03;;;;;;;185.17;93.60;;;23.30;49.50;;;;;;5019762;28;21099;-45
2022/02/01 09:27:30;;;;;;;177.03;91.60;;;23.50;49.10;;;;;;5023316;28;20459;-46
2022/02/01 09:29:57;;;;;;;159.63;86.73;;;23.70;48.70;;;;;;5022466;28;20455;-45
2022/02/01 09:32:24;;;;;;;150.87;81.40;;;23.70;48.00;;;;;;5003680;28;20863;-45
2022/02/01 09:34:51;;;;;;;158.13;82.97;;;23.80;48.00;;;;;;5004073;28;21219;-45
2022/02/01 09:37:20;;;;;;;147.32;80.90;;;23.80;47.70;;;;;;5003426;28;20449;-43
2022/02/01 09:39:47;;;;;;;151.60;78.07;;;23.70;47.50;;;;;;5007680;28;21089;-44
2022/02/01 09:42:14;;;;;;;149.70;77.07;;;23.60;47.70;;;;;;5023662;28;20449;-54
2022/02/01 09:44:41;;;;;;;131.70;68.83;;;23.50;47.80;;;;;;5023095;28;20453;-44
2022/02/01 09:47:08;;;;;;;146.27;74.77;;;23.40;47.90;;;;;;5005635;28;20815;-45
2022/02/01 09:49:35;;;;;;;134.17;70.37;;;23.50;48.40;;;;;;5003664;28;20461;-46
2022/02/01 09:52:03;;;;;;;138.63;74.13;;;23.80;48.10;;;;;;5007998;28;20481;-44
2022/02/01 09:54:32;;;;;;;119.13;68.90;;;24.00;47.60;;;;;;5003186;28;20461;-44
2022/02/01 09:57:06;;;;;;;133.07;69.27;;;24.00;47.30;;;;;;5010552;28;20461;-43
2022/02/01 09:59:34;;;;;;;124.53;67.53;;;24.10;47.20;;;;;;5003158;28;20449;-44
2022/02/01 10:02:06;;;;;;;112.80;62.67;;;23.90;47.00;;;;;;5003301;28;20581;-44
2022/02/01 10:04:34;;;;;;;120.40;61.93;;;23.80;47.00;;;;;;5003098;28;20564;-44
2022/02/01 10:07:09;;;;;;;105.60;58.23;;;23.80;47.20;;;;;;5011737;28;20449;-45
2022/02/01 10:09:52;;;;;;;107.60;59.50;;;23.70;47.20;;;;;;5013652;28;20449;-45
2022/02/01 10:12:20;;;;;;;114.50;62.53;;;23.80;47.90;;;;;;5002152;28;20464;-44
2022/02/01 10:14:54;;;;;;;115.57;67.57;;;24.10;47.20;;;;;;5019058;28;20452;-46
2022/02/01 10:17:37;;;;;;;96.17;57.13;;;24.20;46.90;;;;;;5023038;28;20452;-45
2022/02/01 10:20:04;;;;;;;97.43;56.70;;;24.20;46.50;;;;;;5022867;28;20864;-43
2022/02/01 10:22:33;;;;;;;93.97;53.07;;;24.10;46.40;;;;;;5022669;28;20449;-44
2022/02/01 10:25:03;;;;;;;86.50;50.07;;;24.00;46.50;;;;;;5019857;28;20807;-49
2022/02/01 10:27:32;;;;;;;82.37;48.80;;;24.00;46.50;;;;;;5022420;28;20445;-45
2022/02/01 10:30:02;;;;;;;79.23;47.33;;;24.30;46.80;;;;;;5022590;28;20476;-44
2022/02/01 10:32:42;;;;;;;91.90;55.53;;;24.50;46.70;;;;;;5022347;28;20512;-45
2022/02/01 10:35:24;;;;;;;73.50;44.63;;;24.40;46.70;;;;;;5022580;28;20448;-44
2022/02/01 10:38:00;;;;;;;73.60;43.63;;;24.30;47.00;;;;;;5021437;28;20955;-50
2022/02/01 10:40:41;;;;;;;65.43;42.63;;;24.30;47.10;;;;;;5021002;28;20868;-44
2022/02/01 10:43:17;;;;;;;77.40;44.30;;;24.20;46.80;;;;;;5022645;28;20440;-43
2022/02/01 10:45:45;;;;;;;56.17;38.93;;;24.20;46.80;;;;;;5021870;28;21008;-44
2022/02/01 10:48:14;;;;;;;60.27;39.50;;;24.30;46.70;;;;;;5022273;28;20445;-45
2022/02/01 10:50:41;;;;;;;54.73;36.50;;;24.50;46.70;;;;;;5007526;28;20470;-44
2022/02/01 10:53:18;;;;;;;48.50;36.77;;;24.70;47.20;;;;;;5002354;28;20485;-44
2022/02/01 10:55:47;;;;;;;54.13;36.60;;;24.70;46.80;;;;;;5002122;28;20456;-43
2022/02/01 10:58:15;;;;;;;51.00;35.57;;;24.80;46.50;;;;;;5002174;28;20457;-44
2022/02/01 11:00:43;;;;;;;46.73;32.87;;;24.80;46.10;;;;;;5002211;28;20561;-43
2022/02/01 11:03:12;;;;;;;45.93;33.90;;;24.70;46.00;;;;;;5002834;28;20524;-44
2022/02/01 11:05:41;;;;;;;42.50;33.13;;;24.70;46.10;;;;;;5002161;28;20559;-45
2022/02/01 11:08:13;;;;;;;46.77;32.37;;;24.70;46.10;;;;;;5002529;28;20450;-48
2022/02/01 11:10:46;;;;;;;42.90;30.80;;;24.50;46.00;;;;;;5053093;23;20527;-50
2022/02/01 11:13:13;;;;;;;44.23;31.80;;;24.30;46.40;;;;;;5041402;28;20847;-49
2022/02/01 11:15:40;;;;;;;39.30;30.43;;;24.20;47.30;;;;;;5041659;28;20908;-50
2022/02/01 11:18:12;;;;;;;36.90;28.60;;;24.20;47.80;;;;;;5041385;28;20796;-48
2022/02/01 11:20:39;;;;;;;38.17;29.27;;;24.60;47.70;;;;;;5041671;28;20479;-49
2022/02/01 11:23:08;;;;;;;41.37;31.03;;;24.70;47.10;;;;;;5041549;28;20487;-47
2022/02/01 11:25:43;;;;;;;33.63;28.20;;;24.80;46.80;;;;;;5041044;28;20579;-50
2022/02/01 11:28:21;;;;;;;37.50;29.90;;;24.70;46.60;;;;;;5041389;28;20940;-48
2022/02/01 11:30:55;;;;;;;34.30;28.33;;;24.50;46.50;;;;;;5041385;28;20587;-49
2022/02/01 11:33:22;;;;;;;36.20;28.33;;;24.30;47.10;;;;;;5041312;28;20484;-49
2022/02/01 11:36:01;;;;;;;32.57;28.93;;;24.20;47.40;;;;;;5040684;28;20456;-50
2022/02/01 11:38:28;;;;;;;28.07;23.60;;;24.20;47.20;;;;;;5040794;28;20475;-49
2022/02/01 11:41:01;;;;;;;30.07;23.27;;;24.40;46.40;;;;;;5041008;28;20471;-47
2022/02/01 11:43:29;;;;;;;23.93;21.43;;;24.50;46.30;;;;;;5041379;28;20475;-49
2022/02/01 11:46:00;;;;;;;27.60;23.43;;;24.40;46.10;;;;;;5040789;28;20480;-50
2022/02/01 11:48:28;;;;;;;27.43;23.17;;;24.30;46.40;;;;;;5040740;28;20456;-47
2022/02/01 11:50:57;;;;;;;23.63;21.30;;;24.40;46.70;;;;;;5040924;28;20474;-48
2022/02/01 11:53:29;;;;;;;29.37;21.20;;;24.30;46.60;;;;;;5041301;28;20488;-48
2022/02/01 11:55:57;;;;;;;25.30;22.70;;;24.30;47.00;;;;;;5040680;28;20837;-49
2022/02/01 11:58:30;;;;;;;23.73;21.30;;;24.20;47.00;;;;;;5040833;28;20484;-48
2022/02/01 12:00:58;;;;;;;28.03;21.47;;;24.20;47.20;;;;;;5040890;28;20464;-50
2022/02/01 12:03:32;;;;;;;28.00;22.13;;;24.30;47.20;;;;;;5040808;28;20567;-49
2022/02/01 12:06:05;;;;;;;25.80;21.00;;;24.50;46.90;;;;;;5040686;28;20453;-51
2022/02/01 12:08:34;;;;;;;20.80;18.87;;;24.60;46.80;;;;;;5040675;28;20819;-51
2022/02/01 12:11:03;;;;;;;22.17;19.70;;;24.50;46.50;;;;;;5040332;28;20859;-49
2022/02/01 12:13:34;;;;;;;22.50;20.43;;;24.60;46.50;;;;;;5040279;28;20511;-49
2022/02/01 12:16:04;;;;;;;20.57;18.97;;;24.50;46.50;;;;;;5040650;28;20455;-53
2022/02/01 12:18:39;;;;;;;21.10;19.20;;;24.40;46.40;;;;;;5041026;28;20448;-50
2022/02/01 12:21:26;;;;;;;22.70;20.57;;;24.40;47.20;;;;;;5040571;28;20487;-49
2022/02/01 12:23:54;;;;;;;18.27;16.43;;;24.30;46.80;;;;;;5040580;28;20451;-49
2022/02/01 12:26:24;;;;;;;19.50;17.33;;;24.40;46.90;;;;;;5039990;28;20941;-54
2022/02/01 12:28:54;;;;;;;16.83;15.23;;;24.60;46.60;;;;;;5039183;28;20448;-48
2022/02/01 12:31:22;;;;;;;19.30;17.60;;;24.70;46.20;;;;;;5039694;28;20221;-49
2022/02/01 12:33:53;;;;;;;17.07;15.60;;;24.90;46.00;;;;;;5039760;28;20487;-48
2022/02/01 12:36:26;;;;;;;16.98;15.38;;;25.00;45.60;;;;;;5038786;28;20442;-51
2022/02/01 12:38:59;;;;;;;18.80;17.03;;;24.90;45.30;;;;;;5040132;28;20513;-50
2022/02/01 12:41:33;;;;;;;19.70;17.90;;;24.70;46.20;;;;;;5039735;28;20472;-51
2022/02/01 12:46:50;;;;;;;16.87;15.63;;;24.80;46.60;;;;;;5039483;28;20444;-50
2022/02/01 12:49:17;;;;;;;18.35;16.65;;;24.90;46.40;;;;;;5039437;28;20482;-53
2022/02/01 12:51:47;;;;;;;19.37;17.87;;;24.90;46.20;;;;;;5039610;28;20316;-48
2022/02/01 12:54:24;;;;;;;18.63;16.92;;;24.90;46.10;;;;;;5039348;28;20461;-48
2022/02/01 12:56:51;;;;;;;17.00;15.60;;;24.80;45.90;;;;;;5039178;28;21196;-48
2022/02/01 12:59:21;;;;;;;17.37;16.00;;;24.60;45.80;;;;;;5039587;28;20811;-50
2022/02/01 13:01:48;;;;;;;15.03;14.10;;;24.70;46.10;;;;;;5038922;28;20464;-49
2022/02/01 13:04:22;;;;;;;17.70;16.00;;;24.70;46.10;;;;;;5040015;28;20444;-52
2022/02/01 13:06:50;;;;;;;16.93;15.43;;;24.50;46.10;;;;;;5039774;28;20487;-49
2022/02/01 13:15:07;;;;;;;16.87;15.67;;;25.00;46.00;;;;;;5019695;28;20592;-50
2022/02/01 13:17:40;;;;;;;15.03;13.83;;;25.10;45.50;;;;;;5037624;28;20960;-49
2022/02/01 13:20:17;;;;;;;13.83;12.93;;;25.20;45.30;;;;;;5039330;28;20455;-49
2022/02/01 13:22:53;;;;;;;14.50;13.60;;;25.10;45.20;;;;;;5039673;28;20462;-49
2022/02/01 13:25:32;;;;;;;14.83;13.77;;;25.00;45.20;;;;;;5039151;28;20815;-49
2022/02/01 13:28:02;;;;;;;12.70;11.90;;;25.00;45.20;;;;;;5039164;28;20439;-50
2022/02/01 13:30:30;;;;;;;14.73;13.70;;;24.90;45.30;;;;;;5039518;28;20226;-50
2022/02/01 13:33:08;;;;;;;13.80;13.00;;;24.60;45.40;;;;;;5039282;28;20448;-50
2022/02/01 13:35:45;;;;;;;13.87;13.27;;;24.60;46.00;;;;;;5038989;28;20458;-50
2022/02/01 13:38:12;;;;;;;14.83;13.60;;;24.90;46.00;;;;;;5019710;28;20540;-49
2022/02/01 13:40:40;;;;;;;13.80;12.87;;;25.10;45.50;;;;;;5019636;28;20476;-49
2022/02/01 13:43:14;;;;;;;14.03;13.13;;;25.10;45.40;;;;;;5019613;28;20441;-48
2022/02/01 13:45:42;;;;;;;12.88;12.07;;;25.10;45.20;;;;;;5019883;28;20445;-51
2022/02/01 13:48:13;;;;;;;12.57;11.93;;;25.00;45.20;;;;;;5039293;28;20214;-49
2022/02/01 13:50:43;;;;;;;14.17;13.27;;;24.80;45.30;;;;;;5039135;28;20992;-51
2022/02/01 13:53:09;;;;;;;11.43;10.73;;;24.60;45.80;;;;;;5038373;28;20812;-49
2022/02/01 13:55:40;;;;;;;13.90;12.90;;;24.70;45.90;;;;;;5039175;28;20248;-49